Time;durP1;ratioP1;P1;durP2;ratioP2;P2;SDS_P1;SDS_P2;PMS_P1;PMS_P2;Temp;Humidity;BMP_temperature;BMP_pressure;BME280_temperature;BME280_humidity;BME280_pressure;Samples;Min_cycle;Max_cycle;Signal;HPM_P1;HPM_P2
2022/09/26 00:00:05;;;;;;;;;;;;;;;;;;1040551;28;19913;-75
2022/09/26 00:00:35;;;;;;;;;;;;;;;;;;1040728;28;20381;-75
2022/09/26 00:01:06;;;;;;;;;;;;;;;;;;1040483;28;19913;-75
2022/09/26 00:01:36;;;;;;;;;;;;;;;;;;1041901;28;19936;-75
2022/09/26 00:02:06;;;;;;;;;;;;;;;;;;1042196;28;19971;-75
2022/09/26 00:02:37;;;;;;;;;;;;;;;;;;1037919;28;20325;-75
2022/09/26 00:03:08;;;;;;;;;;;;;;;;;;1036756;28;19913;-75
2022/09/26 00:03:38;;;;;;;;;;;;;;;;;;1038787;28;19923;-74
2022/09/26 00:04:08;;;;;;;;;;;;;;;;;;1038871;28;19924;-75
2022/09/26 00:04:38;;;;;;;;;;;;;;;;;;1040558;28;20531;-75
2022/09/26 00:05:10;;;;;;;;;;;;;;;;;;1039569;28;19920;-75
2022/09/26 00:05:40;;;;;;;;;;;;;;;;;;1039051;28;19960;-75
2022/09/26 00:06:11;;;;;;;;;;;;;;;;;;1039928;28;20339;-75
2022/09/26 00:06:41;;;;;;;;;;;;;;;;;;1040006;28;19913;-74
2022/09/26 00:07:12;;;;;;;;;;;;;;;;;;1040625;28;19920;-75
2022/09/26 00:07:42;;;;;;;;;;;;;;;;;;1040390;28;20360;-75
2022/09/26 00:08:12;;;;;;;;;;;;;;;;;;1040581;28;19917;-75
2022/09/26 00:08:42;;;;;;;;;;;;;;;;;;1040602;28;19913;-75
2022/09/26 00:09:13;;;;;;;;;;;;;;;;;;1040474;28;19920;-75
2022/09/26 00:09:43;;;;;;;;;;;;;;;;;;1040370;28;19913;-75
2022/09/26 00:10:14;;;;;;;;;;;;;;;;;;1040566;28;19967;-75
2022/09/26 00:10:44;;;;;;;;;;;;;;;;;;1040586;28;19935;-75
2022/09/26 00:11:14;;;;;;;;;;;;;;;;;;1040587;28;19913;-75
2022/09/26 00:11:44;;;;;;;;;;;;;;;;;;1040079;28;20348;-75
2022/09/26 00:12:15;;;;;;;;;;;;;;;;;;1040339;28;19920;-75
2022/09/26 00:12:45;;;;;;;;;;;;;;;;;;1040248;28;19959;-75
2022/09/26 00:13:15;;;;;;;;;;;;;;;;;;1035981;28;19952;-75
2022/09/26 00:13:46;;;;;;;;;;;;;;;;;;1039685;28;20058;-75
2022/09/26 00:14:16;;;;;;;;;;;;;;;;;;1039957;28;19913;-75
2022/09/26 00:14:46;;;;;;;;;;;;;;;;;;1040098;28;19956;-75
2022/09/26 00:15:17;;;;;;;;;;;;;;;;;;1040500;28;19914;-75
2022/09/26 00:15:47;;;;;;;;;;;;;;;;;;1040690;28;20026;-75
2022/09/26 00:16:17;;;;;;;;;;;;;;;;;;1040530;28;20441;-75
2022/09/26 00:16:47;;;;;;;;;;;;;;;;;;1040818;28;19952;-75
2022/09/26 00:17:18;;;;;;;;;;;;;;;;;;1040450;28;20015;-75
2022/09/26 00:17:48;;;;;;;;;;;;;;;;;;1040575;28;19913;-75
2022/09/26 00:18:18;;;;;;;;;;;;;;;;;;1040673;28;20341;-75
2022/09/26 00:18:48;;;;;;;;;;;;;;;;;;1040602;28;19968;-75
2022/09/26 00:19:19;;;;;;;;;;;;;;;;;;1041876;28;20265;-75
2022/09/26 00:19:49;;;;;;;;;;;;;;;;;;1040388;28;19944;-75
2022/09/26 00:20:19;;;;;;;;;;;;;;;;;;1041569;28;19913;-75
2022/09/26 00:20:50;;;;;;;;;;;;;;;;;;1041773;28;20008;-75
2022/09/26 00:21:20;;;;;;;;;;;;;;;;;;1040501;28;19917;-75
2022/09/26 00:21:50;;;;;;;;;;;;;;;;;;1041927;28;20008;-75
2022/09/26 00:22:20;;;;;;;;;;;;;;;;;;1037657;28;19920;-75
2022/09/26 00:22:51;;;;;;;;;;;;;;;;;;1038124;28;19970;-75
2022/09/26 00:23:21;;;;;;;;;;;;;;;;;;1033988;28;19925;-75
2022/09/26 00:23:51;;;;;;;;;;;;;;;;;;1037192;28;20372;-75
2022/09/26 00:24:22;;;;;;;;;;;;;;;;;;1042576;28;20351;-75
2022/09/26 00:24:52;;;;;;;;;;;;;;;;;;1039101;28;20844;-75
2022/09/26 00:25:22;;;;;;;;;;;;;;;;;;1037728;28;19913;-75
2022/09/26 00:25:52;;;;;;;;;;;;;;;;;;1041928;28;19959;-75
2022/09/26 00:26:23;;;;;;;;;;;;;;;;;;1040084;28;19917;-75
2022/09/26 00:26:53;;;;;;;;;;;;;;;;;;1041458;28;19917;-75
2022/09/26 00:27:23;;;;;;;;;;;;;;;;;;1042192;28;19921;-75
2022/09/26 00:27:54;;;;;;;;;;;;;;;;;;1038070;28;19913;-75
2022/09/26 00:28:24;;;;;;;;;;;;;;;;;;1041909;28;19920;-75
2022/09/26 00:28:54;;;;;;;;;;;;;;;;;;1040544;28;20391;-75
2022/09/26 00:29:24;;;;;;;;;;;;;;;;;;1040435;28;19918;-75
2022/09/26 00:29:55;;;;;;;;;;;;;;;;;;1040513;28;20416;-75
2022/09/26 00:30:25;;;;;;;;;;;;;;;;;;1040032;28;19923;-75
2022/09/26 00:30:55;;;;;;;;;;;;;;;;;;1040312;28;19913;-75
2022/09/26 00:31:26;;;;;;;;;;;;;;;;;;1038972;28;20603;-75
2022/09/26 00:31:56;;;;;;;;;;;;;;;;;;1036075;28;19917;-75
2022/09/26 00:32:26;;;;;;;;;;;;;;;;;;1040141;28;20008;-75
2022/09/26 00:32:56;;;;;;;;;;;;;;;;;;1040234;28;20368;-75
2022/09/26 00:33:27;;;;;;;;;;;;;;;;;;1035816;28;19913;-75
2022/09/26 00:33:57;;;;;;;;;;;;;;;;;;1036117;28;19987;-75
2022/09/26 00:34:27;;;;;;;;;;;;;;;;;;1040340;28;19913;-75
2022/09/26 00:34:58;;;;;;;;;;;;;;;;;;1040404;28;20399;-75
2022/09/26 00:35:28;;;;;;;;;;;;;;;;;;1040546;28;19919;-75
2022/09/26 00:35:58;;;;;;;;;;;;;;;;;;1041516;28;19924;-75
2022/09/26 00:36:29;;;;;;;;;;;;;;;;;;1038987;28;19988;-75
2022/09/26 00:37:00;;;;;;;;;;;;;;;;;;1040610;28;19913;-75
2022/09/26 00:37:30;;;;;;;;;;;;;;;;;;1037288;28;19951;-75
2022/09/26 00:38:00;;;;;;;;;;;;;;;;;;1038340;28;19920;-75
2022/09/26 00:38:31;;;;;;;;;;;;;;;;;;1036319;28;20499;-75
2022/09/26 00:39:01;;;;;;;;;;;;;;;;;;1038201;28;19917;-75
2022/09/26 00:39:31;;;;;;;;;;;;;;;;;;1041063;28;19972;-75
2022/09/26 00:40:02;;;;;;;;;;;;;;;;;;1036505;28;20425;-75
2022/09/26 00:40:32;;;;;;;;;;;;;;;;;;1037185;28;19922;-75
2022/09/26 00:41:02;;;;;;;;;;;;;;;;;;1038187;28;19960;-75
2022/09/26 00:41:32;;;;;;;;;;;;;;;;;;1039975;28;20355;-75
2022/09/26 00:42:03;;;;;;;;;;;;;;;;;;1040051;28;19921;-75
2022/09/26 00:42:33;;;;;;;;;;;;;;;;;;1038126;28;20004;-75
2022/09/26 00:43:03;;;;;;;;;;;;;;;;;;1037411;28;19924;-75
2022/09/26 00:43:34;;;;;;;;;;;;;;;;;;1041908;28;19924;-75
2022/09/26 00:44:04;;;;;;;;;;;;;;;;;;1041968;28;19919;-77
2022/09/26 00:44:34;;;;;;;;;;;;;;;;;;1041604;28;20006;-75
2022/09/26 00:45:04;;;;;;;;;;;;;;;;;;1043950;28;19936;-75
2022/09/26 00:45:35;;;;;;;;;;;;;;;;;;1042163;28;20182;-75
2022/09/26 00:46:05;;;;;;;;;;;;;;;;;;1043889;28;20062;-75
2022/09/26 00:46:36;;;;;;;;;;;;;;;;;;1039909;28;19920;-75
2022/09/26 00:47:06;;;;;;;;;;;;;;;;;;1040490;28;19913;-75
2022/09/26 00:47:37;;;;;;;;;;;;;;;;;;1040440;28;20289;-76
2022/09/26 00:48:07;;;;;;;;;;;;;;;;;;1040434;28;20059;-75
2022/09/26 00:48:37;;;;;;;;;;;;;;;;;;1040390;28;19971;-75
2022/09/26 00:49:07;;;;;;;;;;;;;;;;;;1040458;28;19998;-75
2022/09/26 00:49:38;;;;;;;;;;;;;;;;;;1040261;28;20044;-75
2022/09/26 00:50:09;;;;;;;;;;;;;;;;;;1039425;28;19924;-75
2022/09/26 00:50:39;;;;;;;;;;;;;;;;;;1040362;28;19917;-75
2022/09/26 00:51:10;;;;;;;;;;;;;;;;;;1040347;28;19920;-75
2022/09/26 00:51:40;;;;;;;;;;;;;;;;;;1040437;28;20365;-75
2022/09/26 00:52:10;;;;;;;;;;;;;;;;;;1040474;28;19917;-75
2022/09/26 00:52:40;;;;;;;;;;;;;;;;;;1040414;28;20399;-75
2022/09/26 00:53:11;;;;;;;;;;;;;;;;;;1040366;28;19956;-75
2022/09/26 00:53:41;;;;;;;;;;;;;;;;;;1040393;28;20609;-75
2022/09/26 00:54:11;;;;;;;;;;;;;;;;;;1040393;28;20027;-75
2022/09/26 00:54:44;;;;;;;;;;;;;;;;;;1040345;28;19917;-75
2022/09/26 00:55:14;;;;;;;;;;;;;;;;;;1039777;28;20018;-75
2022/09/26 00:55:44;;;;;;;;;;;;;;;;;;1040338;28;19913;-75
2022/09/26 00:56:14;;;;;;;;;;;;;;;;;;1040345;28;19913;-75
2022/09/26 00:56:45;;;;;;;;;;;;;;;;;;1040466;28;20381;-75
2022/09/26 00:57:15;;;;;;;;;;;;;;;;;;1042302;28;19964;-75
2022/09/26 00:57:45;;;;;;;;;;;;;;;;;;1037358;28;19917;-75
2022/09/26 00:58:16;;;;;;;;;;;;;;;;;;1035216;28;19997;-75
2022/09/26 00:58:46;;;;;;;;;;;;;;;;;;1037241;28;19948;-75
2022/09/26 00:59:16;;;;;;;;;;;;;;;;;;1039185;28;20400;-75
2022/09/26 00:59:47;;;;;;;;;;;;;;;;;;1040480;28;20019;-75
2022/09/26 01:00:17;;;;;;;;;;;;;;;;;;1039446;28;19913;-75
2022/09/26 01:00:47;;;;;;;;;;;;;;;;;;1041872;28;20369;-75
2022/09/26 01:01:18;;;;;;;;;;;;;;;;;;1041205;28;19917;-75
2022/09/26 01:01:48;;;;;;;;;;;;;;;;;;1042085;28;20824;-75
2022/09/26 01:02:18;;;;;;;;;;;;;;;;;;1040241;28;20262;-75
2022/09/26 01:02:49;;;;;;;;;;;;;;;;;;1040538;28;19917;-75
2022/09/26 01:03:19;;;;;;;;;;;;;;;;;;1040181;28;20399;-75
2022/09/26 01:03:49;;;;;;;;;;;;;;;;;;1040212;28;19913;-75
2022/09/26 01:04:20;;;;;;;;;;;;;;;;;;1039087;28;20387;-75
2022/09/26 01:04:50;;;;;;;;;;;;;;;;;;1040755;28;19920;-75
2022/09/26 01:05:20;;;;;;;;;;;;;;;;;;1035340;28;19960;-75
2022/09/26 01:05:50;;;;;;;;;;;;;;;;;;1034113;28;19945;-75
2022/09/26 01:06:21;;;;;;;;;;;;;;;;;;1034007;28;19913;-75
2022/09/26 01:06:51;;;;;;;;;;;;;;;;;;1037826;28;19982;-75
2022/09/26 01:07:21;;;;;;;;;;;;;;;;;;1042093;28;20526;-75
2022/09/26 01:07:52;;;;;;;;;;;;;;;;;;1042965;28;19916;-75
2022/09/26 01:08:22;;;;;;;;;;;;;;;;;;1041488;28;20291;-75
2022/09/26 01:08:53;;;;;;;;;;;;;;;;;;1046215;28;20197;-75
2022/09/26 01:09:23;;;;;;;;;;;;;;;;;;1042122;28;19917;-75
2022/09/26 01:09:53;;;;;;;;;;;;;;;;;;1042133;28;19925;-75
2022/09/26 01:10:24;;;;;;;;;;;;;;;;;;1038840;28;19913;-75
2022/09/26 01:10:54;;;;;;;;;;;;;;;;;;1042488;28;20401;-75
2022/09/26 01:11:24;;;;;;;;;;;;;;;;;;1042244;28;19934;-75
2022/09/26 01:11:55;;;;;;;;;;;;;;;;;;1042096;28;19920;-75
2022/09/26 01:12:25;;;;;;;;;;;;;;;;;;1045491;28;19913;-75
2022/09/26 01:12:55;;;;;;;;;;;;;;;;;;1040292;28;19917;-75
2022/09/26 01:13:25;;;;;;;;;;;;;;;;;;1039810;28;20090;-75
2022/09/26 01:13:56;;;;;;;;;;;;;;;;;;1035952;28;19917;-75
2022/09/26 01:14:26;;;;;;;;;;;;;;;;;;1036428;28;19920;-76
2022/09/26 01:14:56;;;;;;;;;;;;;;;;;;1036644;28;19913;-76
2022/09/26 01:15:27;;;;;;;;;;;;;;;;;;1037880;28;20013;-76
2022/09/26 01:15:58;;;;;;;;;;;;;;;;;;1041944;28;19920;-76
2022/09/26 01:16:28;;;;;;;;;;;;;;;;;;1035942;28;19913;-76
2022/09/26 01:16:59;;;;;;;;;;;;;;;;;;1037077;28;20836;-76
2022/09/26 01:17:29;;;;;;;;;;;;;;;;;;1040220;28;19947;-76
2022/09/26 01:17:59;;;;;;;;;;;;;;;;;;1039348;28;19920;-76
2022/09/26 01:18:29;;;;;;;;;;;;;;;;;;1037693;28;19983;-76
2022/09/26 01:19:01;;;;;;;;;;;;;;;;;;1039866;28;20325;-76
2022/09/26 01:19:31;;;;;;;;;;;;;;;;;;1040952;28;19925;-76
2022/09/26 01:20:01;;;;;;;;;;;;;;;;;;1039291;28;19925;-76
2022/09/26 01:20:32;;;;;;;;;;;;;;;;;;1040881;28;20404;-76
2022/09/26 01:21:02;;;;;;;;;;;;;;;;;;1039976;28;20008;-76
2022/09/26 01:21:32;;;;;;;;;;;;;;;;;;1026844;28;19964;-76
2022/09/26 01:22:03;;;;;;;;;;;;;;;;;;1034846;28;19977;-76
2022/09/26 01:22:33;;;;;;;;;;;;;;;;;;1035763;28;19917;-76
2022/09/26 01:23:04;;;;;;;;;;;;;;;;;;1035565;28;19913;-76
2022/09/26 01:23:34;;;;;;;;;;;;;;;;;;1040133;28;19932;-75
2022/09/26 01:24:05;;;;;;;;;;;;;;;;;;1039250;28;19920;-76
2022/09/26 01:24:35;;;;;;;;;;;;;;;;;;1039244;28;20400;-76
2022/09/26 01:25:05;;;;;;;;;;;;;;;;;;1039293;28;19917;-76
2022/09/26 01:25:36;;;;;;;;;;;;;;;;;;1040479;28;19917;-76
2022/09/26 01:26:06;;;;;;;;;;;;;;;;;;1038270;28;19917;-76
2022/09/26 01:26:36;;;;;;;;;;;;;;;;;;1039139;28;20284;-76
2022/09/26 01:27:07;;;;;;;;;;;;;;;;;;1039017;28;19919;-76
2022/09/26 01:27:37;;;;;;;;;;;;;;;;;;1039008;28;20361;-76
2022/09/26 01:28:08;;;;;;;;;;;;;;;;;;1038339;28;19917;-76
2022/09/26 01:28:38;;;;;;;;;;;;;;;;;;1035368;28;19917;-76
2022/09/26 01:29:08;;;;;;;;;;;;;;;;;;1036708;28;19921;-76
2022/09/26 01:29:39;;;;;;;;;;;;;;;;;;1031353;28;19918;-76
2022/09/26 01:30:09;;;;;;;;;;;;;;;;;;1032137;28;19918;-76
2022/09/26 01:30:39;;;;;;;;;;;;;;;;;;1032783;28;19925;-76
2022/09/26 01:31:10;;;;;;;;;;;;;;;;;;1033145;28;20021;-76
2022/09/26 01:31:41;;;;;;;;;;;;;;;;;;1030363;28;20436;-76
2022/09/26 01:33:00;;;;;;;;;;;;;;;;;;1025219;28;20290;-76
2022/09/26 01:33:30;;;;;;;;;;;;;;;;;;1026304;28;20192;-76
2022/09/26 01:34:00;;;;;;;;;;;;;;;;;;1024294;28;19917;-76
2022/09/26 01:34:31;;;;;;;;;;;;;;;;;;1024679;28;19920;-76
2022/09/26 01:35:01;;;;;;;;;;;;;;;;;;1028798;28;19967;-76
2022/09/26 01:35:31;;;;;;;;;;;;;;;;;;1026763;28;20441;-76
2022/09/26 01:36:02;;;;;;;;;;;;;;;;;;1023932;28;20308;-75
2022/09/26 01:36:32;;;;;;;;;;;;;;;;;;1020257;28;20430;-77
2022/09/26 01:37:04;;;;;;;;;;;;;;;;;;1018592;28;20020;-77
2022/09/26 01:37:35;;;;;;;;;;;;;;;;;;1017084;28;19988;-77
2022/09/26 01:38:05;;;;;;;;;;;;;;;;;;1019436;28;20376;-77
2022/09/26 01:38:36;;;;;;;;;;;;;;;;;;1027098;28;20394;-77
2022/09/26 01:39:06;;;;;;;;;;;;;;;;;;1028454;28;20453;-77
2022/09/26 01:39:36;;;;;;;;;;;;;;;;;;1025367;28;19913;-77
2022/09/26 01:40:07;;;;;;;;;;;;;;;;;;1022036;28;19968;-76
2022/09/26 01:40:39;;;;;;;;;;;;;;;;;;1022587;28;20483;-76
2022/09/26 01:41:10;;;;;;;;;;;;;;;;;;1020743;28;20295;-76
2022/09/26 01:41:40;;;;;;;;;;;;;;;;;;1023277;28;20220;-76
2022/09/26 01:42:11;;;;;;;;;;;;;;;;;;1024721;28;20011;-76
2022/09/26 01:42:41;;;;;;;;;;;;;;;;;;1028317;28;19994;-76
2022/09/26 01:43:11;;;;;;;;;;;;;;;;;;1025817;28;20234;-75
2022/09/26 01:43:42;;;;;;;;;;;;;;;;;;1025902;28;19928;-75
2022/09/26 01:44:14;;;;;;;;;;;;;;;;;;1024312;28;20811;-75
2022/09/26 01:44:45;;;;;;;;;;;;;;;;;;1021540;28;20354;-75
2022/09/26 01:45:16;;;;;;;;;;;;;;;;;;1020766;28;20072;-76
2022/09/26 01:45:46;;;;;;;;;;;;;;;;;;1018910;28;19944;-76
2022/09/26 01:46:16;;;;;;;;;;;;;;;;;;1030329;28;20011;-75
2022/09/26 01:46:47;;;;;;;;;;;;;;;;;;1030556;28;20193;-76
2022/09/26 01:47:17;;;;;;;;;;;;;;;;;;1024836;28;21618;-76
2022/09/26 01:47:48;;;;;;;;;;;;;;;;;;1027170;28;20028;-76
2022/09/26 01:48:18;;;;;;;;;;;;;;;;;;1022088;28;20111;-77
2022/09/26 01:48:48;;;;;;;;;;;;;;;;;;1022096;28;20947;-77
2022/09/26 01:49:19;;;;;;;;;;;;;;;;;;1024581;28;20078;-77
2022/09/26 01:49:49;;;;;;;;;;;;;;;;;;1020086;28;20198;-77
2022/09/26 01:50:19;;;;;;;;;;;;;;;;;;1025798;28;20007;-77
2022/09/26 01:50:50;;;;;;;;;;;;;;;;;;1028019;28;20091;-76
2022/09/26 01:51:20;;;;;;;;;;;;;;;;;;1022536;28;19921;-76
2022/09/26 01:51:50;;;;;;;;;;;;;;;;;;1024767;28;20806;-76
2022/09/26 01:52:21;;;;;;;;;;;;;;;;;;1025929;28;20039;-76
2022/09/26 01:52:51;;;;;;;;;;;;;;;;;;1027417;28;19923;-76
2022/09/26 01:53:21;;;;;;;;;;;;;;;;;;1028749;28;20727;-76
2022/09/26 01:53:52;;;;;;;;;;;;;;;;;;1027383;28;20541;-76
2022/09/26 01:54:22;;;;;;;;;;;;;;;;;;1026792;28;20315;-76
2022/09/26 01:54:52;;;;;;;;;;;;;;;;;;1027709;28;20070;-76
2022/09/26 01:55:25;;;;;;;;;;;;;;;;;;1023150;28;19962;-76
2022/09/26 01:55:56;;;;;;;;;;;;;;;;;;1024018;28;20141;-76
2022/09/26 01:56:26;;;;;;;;;;;;;;;;;;1023676;28;20639;-76
2022/09/26 01:56:57;;;;;;;;;;;;;;;;;;1026665;28;20316;-76
2022/09/26 01:57:27;;;;;;;;;;;;;;;;;;1027713;28;20715;-76
2022/09/26 01:57:58;;;;;;;;;;;;;;;;;;1025321;28;20482;-76
2022/09/26 01:58:28;;;;;;;;;;;;;;;;;;1027431;28;20089;-76
2022/09/26 01:58:58;;;;;;;;;;;;;;;;;;1030189;28;20236;-76
2022/09/26 01:59:29;;;;;;;;;;;;;;;;;;1025496;28;19919;-76
2022/09/26 01:59:59;;;;;;;;;;;;;;;;;;1028819;28;20187;-76
2022/09/26 02:00:30;;;;;;;;;;;;;;;;;;1029433;28;20564;-76
2022/09/26 02:01:01;;;;;;;;;;;;;;;;;;1024821;28;19994;-76
2022/09/26 02:01:31;;;;;;;;;;;;;;;;;;1029216;28;20123;-76
2022/09/26 02:02:01;;;;;;;;;;;;;;;;;;1027723;28;20458;-76
2022/09/26 02:02:32;;;;;;;;;;;;;;;;;;1027530;28;19913;-76
2022/09/26 02:03:02;;;;;;;;;;;;;;;;;;1026559;28;20450;-76
2022/09/26 02:03:32;;;;;;;;;;;;;;;;;;1024206;28;20665;-76
2022/09/26 02:04:03;;;;;;;;;;;;;;;;;;1022798;28;20183;-76
2022/09/26 02:04:33;;;;;;;;;;;;;;;;;;1021084;28;19997;-76
2022/09/26 02:05:03;;;;;;;;;;;;;;;;;;1021466;28;20197;-76
2022/09/26 02:05:34;;;;;;;;;;;;;;;;;;1025687;28;20155;-76
2022/09/26 02:06:04;;;;;;;;;;;;;;;;;;1029111;28;19986;-76
2022/09/26 02:06:34;;;;;;;;;;;;;;;;;;1027901;28;20390;-76
2022/09/26 02:07:05;;;;;;;;;;;;;;;;;;1026607;28;19921;-76
2022/09/26 02:07:35;;;;;;;;;;;;;;;;;;1025805;28;20013;-75
2022/09/26 02:08:05;;;;;;;;;;;;;;;;;;1027412;28;19991;-76
2022/09/26 02:08:36;;;;;;;;;;;;;;;;;;1031899;28;20508;-75
2022/09/26 02:09:06;;;;;;;;;;;;;;;;;;1033332;28;20406;-76
2022/09/26 02:09:37;;;;;;;;;;;;;;;;;;1026143;28;20292;-75
2022/09/26 02:10:07;;;;;;;;;;;;;;;;;;1029230;28;19909;-76
2022/09/26 02:10:37;;;;;;;;;;;;;;;;;;1030503;28;19923;-76
2022/09/26 02:11:08;;;;;;;;;;;;;;;;;;1031706;28;20382;-77
2022/09/26 02:11:40;;;;;;;;;;;;;;;;;;1028322;28;20707;-76
2022/09/26 02:12:11;;;;;;;;;;;;;;;;;;1029241;28;19971;-77
2022/09/26 02:12:41;;;;;;;;;;;;;;;;;;1029728;28;20063;-77
2022/09/26 02:13:11;;;;;;;;;;;;;;;;;;1028378;28;20459;-77
2022/09/26 02:13:42;;;;;;;;;;;;;;;;;;1031981;28;20887;-77
2022/09/26 02:14:12;;;;;;;;;;;;;;;;;;1028607;28;20694;-77
2022/09/26 02:14:42;;;;;;;;;;;;;;;;;;1030754;28;20007;-77
2022/09/26 02:15:13;;;;;;;;;;;;;;;;;;1028736;28;20918;-77
2022/09/26 02:15:43;;;;;;;;;;;;;;;;;;1027041;28;19987;-77
2022/09/26 02:16:13;;;;;;;;;;;;;;;;;;1023086;28;20212;-75
2022/09/26 02:16:44;;;;;;;;;;;;;;;;;;1028291;28;19929;-76
2022/09/26 02:17:14;;;;;;;;;;;;;;;;;;1026996;28;19913;-76
2022/09/26 02:17:44;;;;;;;;;;;;;;;;;;1029948;28;20277;-76
2022/09/26 02:18:15;;;;;;;;;;;;;;;;;;1029235;28;20621;-76
2022/09/26 02:18:45;;;;;;;;;;;;;;;;;;1030177;28;20090;-76
2022/09/26 02:19:15;;;;;;;;;;;;;;;;;;1029417;28;19920;-76
2022/09/26 02:19:45;;;;;;;;;;;;;;;;;;1025769;28;20692;-76
2022/09/26 02:20:16;;;;;;;;;;;;;;;;;;1025206;28;20086;-76
2022/09/26 02:20:46;;;;;;;;;;;;;;;;;;1026626;28;20415;-76
2022/09/26 02:21:16;;;;;;;;;;;;;;;;;;1028132;28;20329;-75
2022/09/26 02:21:47;;;;;;;;;;;;;;;;;;1030102;28;21000;-78
2022/09/26 02:22:17;;;;;;;;;;;;;;;;;;1028960;28;20456;-76
2022/09/26 02:22:47;;;;;;;;;;;;;;;;;;1027314;28;20173;-76
2022/09/26 02:23:18;;;;;;;;;;;;;;;;;;1029679;28;20011;-76
2022/09/26 02:23:48;;;;;;;;;;;;;;;;;;1029189;28;19923;-76
2022/09/26 02:24:18;;;;;;;;;;;;;;;;;;1026953;28;21805;-76
2022/09/26 02:24:49;;;;;;;;;;;;;;;;;;1025574;28;20958;-76
2022/09/26 02:25:19;;;;;;;;;;;;;;;;;;1026086;28;19923;-76
2022/09/26 02:25:49;;;;;;;;;;;;;;;;;;1026694;28;19913;-75
2022/09/26 02:26:20;;;;;;;;;;;;;;;;;;1024547;28;19921;-76
2022/09/26 02:26:50;;;;;;;;;;;;;;;;;;1029761;28;20464;-76
2022/09/26 02:27:20;;;;;;;;;;;;;;;;;;1028543;28;20986;-76
2022/09/26 02:27:50;;;;;;;;;;;;;;;;;;1029365;28;20452;-76
2022/09/26 02:28:21;;;;;;;;;;;;;;;;;;1029557;28;19924;-76
2022/09/26 02:28:52;;;;;;;;;;;;;;;;;;1028274;28;20046;-76
2022/09/26 02:29:22;;;;;;;;;;;;;;;;;;1024804;28;19979;-76
2022/09/26 02:29:52;;;;;;;;;;;;;;;;;;1025587;28;20683;-76
2022/09/26 02:30:23;;;;;;;;;;;;;;;;;;1023064;28;19961;-76
2022/09/26 02:30:53;;;;;;;;;;;;;;;;;;1026136;28;19956;-77
2022/09/26 02:31:24;;;;;;;;;;;;;;;;;;1026622;28;19924;-77
2022/09/26 02:31:54;;;;;;;;;;;;;;;;;;1024576;28;20428;-77
2022/09/26 02:32:25;;;;;;;;;;;;;;;;;;1027638;28;20795;-77
2022/09/26 02:32:56;;;;;;;;;;;;;;;;;;1028344;28;20383;-77
2022/09/26 02:33:26;;;;;;;;;;;;;;;;;;1028026;28;20354;-77
2022/09/26 02:33:57;;;;;;;;;;;;;;;;;;1031156;28;19920;-77
2022/09/26 02:34:27;;;;;;;;;;;;;;;;;;1031190;28;20330;-76
2022/09/26 02:34:57;;;;;;;;;;;;;;;;;;1029299;28;20565;-77
2022/09/26 02:36:17;;;;;;;;;;;;;;;;;;1028384;28;19958;-77
2022/09/26 02:36:47;;;;;;;;;;;;;;;;;;1029003;28;20467;-77
2022/09/26 02:37:20;;;;;;;;;;;;;;;;;;1026547;28;20121;-77
2022/09/26 02:37:51;;;;;;;;;;;;;;;;;;1025250;28;20481;-76
2022/09/26 02:38:22;;;;;;;;;;;;;;;;;;1024710;28;19922;-76
2022/09/26 02:38:52;;;;;;;;;;;;;;;;;;1023570;28;19922;-77
2022/09/26 02:39:23;;;;;;;;;;;;;;;;;;1021664;28;19925;-77
2022/09/26 02:39:53;;;;;;;;;;;;;;;;;;1026719;28;20386;-75
2022/09/26 02:40:25;;;;;;;;;;;;;;;;;;1025155;28;20242;-76
2022/09/26 02:40:55;;;;;;;;;;;;;;;;;;1030810;28;19918;-76
2022/09/26 02:41:27;;;;;;;;;;;;;;;;;;1028706;28;19921;-76
2022/09/26 02:41:58;;;;;;;;;;;;;;;;;;1027110;28;19964;-76
2022/09/26 02:42:28;;;;;;;;;;;;;;;;;;1033161;28;19917;-76
2022/09/26 02:42:59;;;;;;;;;;;;;;;;;;1033326;28;20238;-77
2022/09/26 02:43:30;;;;;;;;;;;;;;;;;;1034247;28;19913;-77
2022/09/26 02:44:00;;;;;;;;;;;;;;;;;;1037880;28;20022;-77
2022/09/26 02:44:31;;;;;;;;;;;;;;;;;;1028873;28;20341;-76
2022/09/26 02:45:01;;;;;;;;;;;;;;;;;;1028957;28;20595;-77
2022/09/26 02:45:31;;;;;;;;;;;;;;;;;;1029242;28;19924;-76
2022/09/26 02:46:02;;;;;;;;;;;;;;;;;;1032157;28;19951;-76
2022/09/26 02:46:38;;;;;;;;;;;;;;;;;;1031127;28;20250;-76
2022/09/26 02:47:08;;;;;;;;;;;;;;;;;;1031815;28;20313;-76
2022/09/26 02:47:39;;;;;;;;;;;;;;;;;;1031252;28;19931;-75
2022/09/26 02:48:09;;;;;;;;;;;;;;;;;;1031645;28;19924;-76
2022/09/26 02:48:39;;;;;;;;;;;;;;;;;;1028703;28;20008;-75
2022/09/26 02:49:10;;;;;;;;;;;;;;;;;;1031820;28;19920;-75
2022/09/26 02:49:40;;;;;;;;;;;;;;;;;;1028651;28;19966;-76
2022/09/26 02:50:10;;;;;;;;;;;;;;;;;;1027201;28;19914;-76
2022/09/26 02:50:41;;;;;;;;;;;;;;;;;;1026829;28;20555;-76
2022/09/26 02:51:11;;;;;;;;;;;;;;;;;;1028162;28;20815;-75
2022/09/26 02:51:41;;;;;;;;;;;;;;;;;;1029780;28;20406;-76
2022/09/26 02:52:11;;;;;;;;;;;;;;;;;;1031839;28;20032;-75
2022/09/26 02:52:42;;;;;;;;;;;;;;;;;;1032125;28;20715;-75
2022/09/26 02:53:12;;;;;;;;;;;;;;;;;;1031667;28;20015;-75
2022/09/26 02:53:43;;;;;;;;;;;;;;;;;;1032333;28;19913;-77
2022/09/26 02:54:13;;;;;;;;;;;;;;;;;;1030621;28;19920;-77
2022/09/26 02:54:45;;;;;;;;;;;;;;;;;;1033802;28;20263;-77
2022/09/26 02:55:15;;;;;;;;;;;;;;;;;;1026425;28;19937;-75
2022/09/26 02:55:46;;;;;;;;;;;;;;;;;;1022737;28;20199;-75
2022/09/26 02:56:19;;;;;;;;;;;;;;;;;;1033673;28;19928;-75
2022/09/26 02:56:49;;;;;;;;;;;;;;;;;;1019917;28;20428;-76
2022/09/26 02:57:21;;;;;;;;;;;;;;;;;;1031205;28;20507;-77
2022/09/26 02:57:52;;;;;;;;;;;;;;;;;;1034517;28;20488;-77
2022/09/26 02:58:22;;;;;;;;;;;;;;;;;;1028344;28;20024;-77
2022/09/26 02:58:53;;;;;;;;;;;;;;;;;;1028617;28;19940;-76
2022/09/26 02:59:23;;;;;;;;;;;;;;;;;;1027531;28;19921;-76
2022/09/26 02:59:53;;;;;;;;;;;;;;;;;;1030691;28;20505;-77
2022/09/26 03:00:24;;;;;;;;;;;;;;;;;;1029359;28;19967;-77
2022/09/26 03:00:54;;;;;;;;;;;;;;;;;;1030255;28;19959;-77
2022/09/26 03:01:26;;;;;;;;;;;;;;;;;;1032988;28;19924;-77
2022/09/26 03:01:57;;;;;;;;;;;;;;;;;;1030507;28;20251;-75
2022/09/26 03:02:27;;;;;;;;;;;;;;;;;;1030714;28;20627;-76
2022/09/26 03:02:58;;;;;;;;;;;;;;;;;;1029311;28;19947;-77
2022/09/26 03:03:28;;;;;;;;;;;;;;;;;;1023002;28;20036;-77
2022/09/26 03:03:58;;;;;;;;;;;;;;;;;;1027970;28;20185;-77
2022/09/26 03:04:29;;;;;;;;;;;;;;;;;;1018241;28;20729;-77
2022/09/26 03:04:59;;;;;;;;;;;;;;;;;;1017759;28;19973;-77
2022/09/26 03:05:30;;;;;;;;;;;;;;;;;;1017189;28;19918;-75
2022/09/26 03:06:00;;;;;;;;;;;;;;;;;;1018574;28;19930;-74
2022/09/26 03:06:31;;;;;;;;;;;;;;;;;;1027271;28;19925;-76
2022/09/26 03:07:01;;;;;;;;;;;;;;;;;;1025794;28;20473;-76
2022/09/26 03:07:32;;;;;;;;;;;;;;;;;;1031089;28;19917;-76
2022/09/26 03:08:02;;;;;;;;;;;;;;;;;;1031283;28;20821;-76
2022/09/26 03:08:33;;;;;;;;;;;;;;;;;;1028078;28;19921;-76
2022/09/26 03:09:04;;;;;;;;;;;;;;;;;;1030582;28;20421;-75
2022/09/26 03:09:35;;;;;;;;;;;;;;;;;;1032864;28;19921;-76
2022/09/26 03:10:06;;;;;;;;;;;;;;;;;;1028094;28;20204;-76
2022/09/26 03:10:36;;;;;;;;;;;;;;;;;;1023820;28;20383;-76
2022/09/26 03:11:09;;;;;;;;;;;;;;;;;;1027168;28;19925;-78
2022/09/26 03:11:40;;;;;;;;;;;;;;;;;;1026667;28;19917;-75
2022/09/26 03:12:11;;;;;;;;;;;;;;;;;;1030299;28;19921;-76
2022/09/26 03:12:43;;;;;;;;;;;;;;;;;;1031455;28;19917;-76
2022/09/26 03:13:16;;;;;;;;;;;;;;;;;;1026683;28;20208;-77
2022/09/26 03:13:47;;;;;;;;;;;;;;;;;;1025026;28;19917;-77
2022/09/26 03:14:20;;;;;;;;;;;;;;;;;;1030548;28;19979;-77
2022/09/26 03:14:50;;;;;;;;;;;;;;;;;;1033076;28;19987;-77
2022/09/26 03:15:21;;;;;;;;;;;;;;;;;;1032983;28;20019;-77
2022/09/26 03:15:51;;;;;;;;;;;;;;;;;;1029629;28;20169;-78
2022/09/26 03:16:22;;;;;;;;;;;;;;;;;;1026938;28;19928;-78
2022/09/26 03:16:55;;;;;;;;;;;;;;;;;;1025544;28;20073;-78
2022/09/26 03:17:25;;;;;;;;;;;;;;;;;;1028028;28;19917;-77
2022/09/26 03:17:56;;;;;;;;;;;;;;;;;;1028741;28;19917;-78
2022/09/26 03:18:27;;;;;;;;;;;;;;;;;;1028078;28;19988;-78
2022/09/26 03:18:57;;;;;;;;;;;;;;;;;;1031522;28;19920;-77
2022/09/26 03:19:28;;;;;;;;;;;;;;;;;;1029377;28;20354;-76
2022/09/26 03:19:59;;;;;;;;;;;;;;;;;;1026213;28;20495;-77
2022/09/26 03:20:29;;;;;;;;;;;;;;;;;;1025835;28;20477;-77
2022/09/26 03:21:00;;;;;;;;;;;;;;;;;;1026392;28;20912;-78
2022/09/26 03:21:31;;;;;;;;;;;;;;;;;;1025235;28;20697;-78
2022/09/26 03:22:01;;;;;;;;;;;;;;;;;;1024996;28;20448;-78
2022/09/26 03:22:32;;;;;;;;;;;;;;;;;;1032179;28;19920;-78
2022/09/26 03:23:03;;;;;;;;;;;;;;;;;;1033855;28;20360;-78
2022/09/26 03:23:33;;;;;;;;;;;;;;;;;;1032844;28;20055;-77
2022/09/26 03:24:03;;;;;;;;;;;;;;;;;;1033600;28;19917;-78
2022/09/26 03:24:34;;;;;;;;;;;;;;;;;;1034365;28;19921;-78
2022/09/26 03:25:05;;;;;;;;;;;;;;;;;;1026097;28;20312;-78
2022/09/26 03:25:35;;;;;;;;;;;;;;;;;;1026098;28;20168;-78
2022/09/26 03:26:06;;;;;;;;;;;;;;;;;;1030172;28;19913;-77
2022/09/26 03:26:36;;;;;;;;;;;;;;;;;;1026098;28;19937;-78
2022/09/26 03:27:06;;;;;;;;;;;;;;;;;;1022851;28;20526;-78
2022/09/26 03:27:37;;;;;;;;;;;;;;;;;;1025071;28;19927;-78
2022/09/26 03:28:09;;;;;;;;;;;;;;;;;;1024523;28;19913;-78
2022/09/26 03:28:40;;;;;;;;;;;;;;;;;;1032758;28;19975;-78
2022/09/26 03:29:10;;;;;;;;;;;;;;;;;;1037499;28;20362;-78
2022/09/26 03:29:42;;;;;;;;;;;;;;;;;;1033207;28;19917;-78